Time;durP1;ratioP1;P1;durP2;ratioP2;P2;SDS_P1;SDS_P2;PMS_P1;PMS_P2;Temp;Humidity;BMP_temperature;BMP_pressure;BME280_temperature;BME280_humidity;BME280_pressure;Samples;Min_cycle;Max_cycle;Signal;HPM_P1;HPM_P2
2022/11/01 00:01:43;;;;;;;101.67;34.13;;;;;;;11.99;100.00;100986.41;4931208;29;20416;-74
2022/11/01 00:04:08;;;;;;;97.80;34.23;;;;;;;11.93;100.00;100954.94;4907201;29;20328;-74
2022/11/01 00:06:35;;;;;;;100.23;34.83;;;;;;;11.96;100.00;100970.66;4927547;29;20019;-74
2022/11/01 00:09:00;;;;;;;;;;;;;;;11.93;100.00;100973.66;4914708;29;20404;-73
2022/11/01 00:11:26;;;;;;;;;;;;;;;11.91;100.00;100964.97;4913904;29;19915;-73
2022/11/01 00:13:51;;;;;;;95.97;35.40;;;;;;;11.90;100.00;100960.63;4913475;29;19918;-74
2022/11/01 00:16:18;;;;;;;98.13;34.63;;;;;;;11.94;100.00;100967.31;4928906;29;20864;-73
2022/11/01 00:18:44;;;;;;;105.07;37.45;;;;;;;11.92;100.00;100953.28;4913271;29;20050;-74
2022/11/01 00:21:10;;;;;;;101.68;38.95;;;;;;;11.94;100.00;100940.56;4897688;29;20481;-73
2022/11/01 00:23:36;;;;;;;98.68;39.78;;;;;;;11.93;100.00;100931.69;4929135;29;20050;-73
2022/11/01 00:26:03;;;;;;;102.60;40.88;;;;;;;11.89;100.00;100935.69;4921319;29;20031;-74
2022/11/01 00:28:28;;;;;;;105.88;36.80;;;;;;;11.95;100.00;100935.03;4930410;29;20079;-74
2022/11/01 00:30:55;;;;;;;94.65;38.25;;;;;;;11.96;100.00;100922.50;4920946;29;20039;-74
2022/11/01 00:33:21;;;;;;;118.22;38.47;;;;;;;11.95;100.00;100927.00;4921380;29;20536;-73
2022/11/01 00:35:47;;;;;;;96.63;39.47;;;;;;;11.94;100.00;100917.31;4928232;29;20421;-74
2022/11/01 00:38:14;;;;;;;101.80;40.33;;;;;;;11.93;100.00;100912.97;4929789;29;20159;-73
2022/11/01 00:40:39;;;;;;;;;;;;;;;11.89;100.00;100910.78;4897592;29;20491;-74
2022/11/01 00:43:04;;;;;;;;;;;;;;;11.91;100.00;100908.78;4930561;29;19918;-74
2022/11/01 00:45:31;;;;;;;108.00;39.58;;;;;;;11.89;100.00;100908.13;4929413;29;19927;-74
2022/11/01 00:47:56;;;;;;;103.70;40.97;;;;;;;11.88;100.00;100895.75;4920852;29;20041;-74
2022/11/01 00:50:21;;;;;;;101.53;39.90;;;;;;;11.86;100.00;100884.34;4913567;29;20158;-73
2022/11/01 00:52:47;;;;;;;106.03;40.67;;;;;;;11.87;100.00;100886.91;4930094;29;20138;-74
2022/11/01 00:55:12;;;;;;;108.63;42.70;;;;;;;11.83;100.00;100886.34;4912705;29;20043;-75
2022/11/01 00:57:38;;;;;;;107.53;42.60;;;;;;;11.84;100.00;100871.13;4918385;29;20039;-75
2022/11/01 01:00:04;;;;;;;114.30;44.97;;;;;;;11.84;100.00;100869.28;4912738;29;20039;-74
2022/11/01 01:02:29;;;;;;;110.13;42.55;;;;;;;11.84;100.00;100866.59;4929922;29;20035;-73
2022/11/01 01:04:55;;;;;;;105.93;44.87;;;;;;;11.87;100.00;100864.59;4915502;29;20050;-74
2022/11/01 01:07:20;;;;;;;106.00;41.70;;;;;;;11.89;100.00;100859.97;4933399;29;20031;-73
2022/11/01 01:09:45;;;;;;;108.60;47.03;;;;;;;11.90;100.00;100850.94;4927375;29;20036;-74
2022/11/01 01:12:11;;;;;;;111.87;43.57;;;;;;;11.88;100.00;100860.97;4912384;29;20536;-74
2022/11/01 01:14:36;;;;;;;108.97;44.70;;;;;;;11.87;100.00;100856.59;4912343;29;20051;-73
2022/11/01 01:17:02;;;;;;;116.87;45.17;;;;;;;11.91;100.00;100861.47;4913090;29;20023;-73
2022/11/01 01:19:29;;;;;;;124.47;46.97;;;;;;;11.88;100.00;100850.28;4920422;29;20035;-75
2022/11/01 01:21:55;;;;;;;114.13;44.08;;;;;;;11.88;100.00;100848.44;4919957;29;20086;-73
2022/11/01 01:24:20;;;;;;;115.00;47.08;;;;;;;11.88;100.00;100842.25;4912317;29;20035;-73
2022/11/01 01:26:45;;;;;;;123.22;49.80;;;;;;;11.86;100.00;100852.25;4911629;29;20043;-74
2022/11/01 01:29:11;;;;;;;117.83;48.37;;;;;;;11.90;100.00;100858.97;4912202;29;20034;-74
2022/11/01 01:31:36;;;;;;;121.90;50.80;;;;;;;11.91;100.00;100841.91;4937188;29;20509;-74
2022/11/01 01:34:02;;;;;;;110.17;47.27;;;;;;;11.89;100.00;100841.22;4929123;29;20979;-73
2022/11/01 01:36:27;;;;;;;121.77;49.93;;;;;;;11.92;100.00;100839.06;4928012;29;20140;-74
2022/11/01 01:38:52;;;;;;;125.03;52.60;;;;;;;11.97;100.00;100843.91;4896053;29;20053;-74
2022/11/01 01:45:00;;;;;;;116.97;50.97;;;;;;;11.96;100.00;100820.81;4929223;29;20512;-75
2022/11/01 01:47:32;;;;;;;123.05;51.03;;;;;;;11.98;100.00;100808.09;4862066;29;20045;-74
2022/11/01 01:50:22;;;;;;;118.20;51.90;;;;;;;11.99;100.00;100807.13;4854288;29;20047;-75
2022/11/01 01:52:53;;;;;;;111.75;49.63;;;;;;;11.99;100.00;100793.75;4870116;29;20641;-74
2022/11/01 01:55:26;;;;;;;114.47;50.38;;;;;;;11.98;100.00;100784.84;4869409;29;20119;-74
2022/11/01 01:57:55;;;;;;;119.65;55.00;;;;;;;12.04;100.00;100778.00;4862024;29;20033;-75
2022/11/01 02:00:21;;;;;;;125.93;51.75;;;;;;;12.00;100.00;100774.00;4854014;29;20037;-73
2022/11/01 02:02:46;;;;;;;114.63;51.60;;;;;;;12.03;100.00;100773.66;4861871;29;20096;-74
2022/11/01 02:05:28;;;;;;;128.87;55.10;;;;;;;12.04;100.00;100776.16;4836014;29;20059;-74
2022/11/01 02:07:55;;;;;;;122.68;54.08;;;;;;;12.01;100.00;100770.31;4858299;29;20045;-73
2022/11/01 02:10:20;;;;;;;;;;;;;;;12.06;100.00;100781.34;4835916;29;20052;-75
2022/11/01 02:12:47;;;;;;;124.55;52.92;;;;;;;12.01;100.00;100770.31;4860118;29;19916;-73
2022/11/01 02:15:15;;;;;;;123.30;54.33;;;;;;;12.03;100.00;100774.50;4856172;29;20048;-75
2022/11/01 02:18:17;;;;;;;124.30;53.00;;;;;;;12.05;100.00;100766.28;4873586;29;20040;-75
2022/11/01 02:20:59;;;;;;;119.30;54.80;;;;;;;12.08;100.00;100765.97;4929364;29;20055;-74
2022/11/01 02:23:44;;;;;;;128.50;54.05;;;;;;;12.08;100.00;100760.59;4932582;29;20036;-74
2022/11/01 02:26:35;;;;;;;134.45;54.83;;;;;;;12.03;100.00;100757.59;4920582;29;20110;-73
2022/11/01 02:29:06;;;;;;;127.35;54.10;;;;;;;12.03;100.00;100757.59;4926904;29;20142;-73
2022/11/01 02:31:53;;;;;;;137.93;53.78;;;;;;;12.07;100.00;100750.06;4926706;29;20465;-74
2022/11/01 02:34:32;;;;;;;128.98;54.60;;;;;;;12.10;100.00;100747.88;4947353;29;20109;-74
2022/11/01 02:37:12;;;;;;;128.32;56.63;;;;;;;12.10;100.00;100737.16;4926692;29;20050;-75
2022/11/01 02:39:44;;;;;;;124.25;55.65;;;;;;;12.08;100.00;100733.00;4911041;29;20538;-74
2022/11/01 02:42:34;;;;;;;119.93;50.83;;;;;;;12.08;100.00;100728.50;4941026;29;20117;-74
2022/11/01 02:45:26;;;;;;;123.95;53.05;;;;;;;12.14;100.00;100732.31;4926859;29;20027;-74
2022/11/01 02:47:56;;;;;;;121.72;52.05;;;;;;;12.16;100.00;100717.75;4929622;29;20059;-74
2022/11/01 02:50:25;;;;;;;130.50;54.70;;;;;;;12.15;100.00;100715.22;4929933;29;20046;-73
2022/11/01 02:52:51;;;;;;;132.27;54.10;;;;;;;12.11;100.00;100705.91;4921926;29;20023;-73
2022/11/01 02:55:32;;;;;;;121.68;54.25;;;;;;;12.13;100.00;100696.69;4946604;29;20489;-74
2022/11/01 02:58:00;;;;;;;124.60;53.00;;;;;;;12.10;100.00;100682.81;4946967;29;20457;-74
2022/11/01 03:00:29;;;;;;;128.60;52.72;;;;;;;12.15;100.00;100678.63;4946954;29;20027;-74
2022/11/01 03:03:15;;;;;;;126.63;55.17;;;;;;;12.13;100.00;100674.47;4921928;29;20432;-74
2022/11/01 03:05:49;;;;;;;116.95;51.97;;;;;;;12.17;100.00;100681.09;4946497;29;20043;-74
2022/11/01 03:08:19;;;;;;;113.30;52.35;;;;;;;12.11;100.00;100674.63;4946875;29;20106;-74
2022/11/01 03:11:03;;;;;;;129.00;51.20;;;;;;;12.12;100.00;100664.75;4938960;29;20086;-74
2022/11/01 03:13:54;;;;;;;118.32;47.88;;;;;;;12.14;100.00;100668.91;4929565;29;20030;-74
2022/11/01 03:16:29;;;;;;;114.93;49.17;;;;;;;12.12;100.00;100656.72;4946353;29;20481;-74
2022/11/01 03:19:26;;;;;;;119.13;48.38;;;;;;;12.14;100.00;100663.56;4918489;29;20039;-74
2022/11/01 03:22:15;;;;;;;115.13;48.33;;;;;;;12.13;100.00;100642.34;4946067;29;20031;-74
2022/11/01 03:25:38;;;;;;;108.70;48.50;;;;;;;12.14;100.00;100647.50;4929012;29;20043;-74
2022/11/01 03:27:59;;;;;;;112.18;49.13;;;;;;;12.19;100.00;100649.66;4946451;29;20024;-74
2022/11/01 03:30:28;;;;;;;107.32;43.38;;;;;;;12.16;100.00;100642.81;4945490;29;20019;-74
2022/11/01 03:32:56;;;;;;;110.00;47.53;;;;;;;12.18;100.00;100648.81;4946600;29;20050;-73
2022/11/01 03:35:26;;;;;;;106.50;46.10;;;;;;;12.21;100.00;100640.44;4922870;29;20114;-74
2022/11/01 03:37:57;;;;;;;115.82;47.15;;;;;;;12.20;100.00;100637.94;4913183;29;20062;-74
2022/11/01 03:40:25;;;;;;;104.10;45.88;;;;;;;12.19;100.00;100626.38;4939112;29;20134;-74
2022/11/01 03:42:57;;;;;;;97.63;42.80;;;;;;;12.22;100.00;100628.72;4946528;29;20657;-74
2022/11/01 03:45:24;;;;;;;96.93;44.95;;;;;;;12.29;100.00;100628.00;4944396;29;20647;-75
2022/11/01 03:47:50;;;;;;;90.45;43.90;;;;;;;12.38;100.00;100625.09;4913374;29;20031;-73
2022/11/01 03:50:18;;;;;;;97.85;43.60;;;;;;;12.30;100.00;100617.13;4929349;29;20432;-73
2022/11/01 03:52:44;;;;;;;93.38;40.75;;;;;;;12.25;100.00;100616.84;4921518;29;20044;-73
2022/11/01 03:55:19;;;;;;;105.38;43.70;;;;;;;12.23;100.00;100614.31;4945895;29;20038;-73
2022/11/01 03:57:56;;;;;;;90.95;41.08;;;;;;;12.30;100.00;100601.06;4921264;29;20372;-73
2022/11/01 04:00:28;;;;;;;106.72;45.83;;;;;;;12.28;100.00;100595.06;4930754;29;20568;-75
2022/11/01 04:02:55;;;;;;;98.15;41.25;;;;;;;12.33;100.00;100583.81;4932527;29;20449;-75
2022/11/01 04:05:22;;;;;;;96.60;45.30;;;;;;;12.33;100.00;100573.94;4932245;29;20485;-73
2022/11/01 04:07:48;;;;;;;85.20;38.83;;;;;;;12.32;100.00;100558.91;4949688;29;20043;-75
2022/11/01 04:10:14;;;;;;;94.40;40.53;;;;;;;12.34;100.00;100561.38;4926810;29;20281;-74
2022/11/01 04:12:39;;;;;;;96.75;38.17;;;;;;;12.31;100.00;100553.72;4920333;29;20036;-73
2022/11/01 04:20:57;;;;;;;92.35;43.03;;;;;;;12.38;100.00;100568.88;4941998;29;20041;-73
2022/11/01 04:23:22;;;;;;;;;;;;;;;12.39;100.00;100561.72;4948938;29;20106;-75
2022/11/01 04:25:48;;;;;;;;;;;;;;;12.34;100.00;100562.25;4932263;29;20331;-75
2022/11/01 04:28:14;;;;;;;91.87;42.23;;;;;;;12.38;100.00;100554.66;4948128;29;19914;-74
2022/11/01 04:30:41;;;;;;;93.45;41.33;;;;;;;12.38;100.00;100549.31;4948163;29;20122;-74
2022/11/01 04:33:07;;;;;;;94.70;42.13;;;;;;;12.40;100.00;100544.63;4924398;29;20023;-74
2022/11/01 04:35:34;;;;;;;99.85;41.00;;;;;;;12.36;100.00;100552.19;4931523;29;20460;-76
2022/11/01 04:37:59;;;;;;;90.70;41.88;;;;;;;12.36;100.00;100545.97;4908476;29;20500;-73
2022/11/01 04:40:25;;;;;;;104.77;41.57;;;;;;;12.35;100.00;100538.97;4916025;29;20034;-74
2022/11/01 04:42:52;;;;;;;94.57;42.97;;;;;;;12.32;100.00;100544.69;4916211;29;20161;-74
2022/11/01 04:45:18;;;;;;;98.22;43.38;;;;;;;12.32;100.00;100545.53;4905990;29;20288;-75
2022/11/01 04:47:51;;;;;;;86.85;39.80;;;;;;;12.38;100.00;100541.28;4937706;29;20043;-73
2022/11/01 04:50:20;;;;;;;87.40;41.95;;;;;;;12.40;100.00;100544.63;4916034;29;20407;-73
2022/11/01 04:52:46;;;;;;;84.90;41.20;;;;;;;12.40;100.00;100549.97;4924130;29;20413;-73
2022/11/01 04:55:11;;;;;;;90.50;41.13;;;;;;;12.41;100.00;100536.41;4931543;29;20100;-73
2022/11/01 04:57:41;;;;;;;92.32;42.03;;;;;;;12.40;100.00;100533.91;4931314;29;20579;-74
2022/11/01 05:00:10;;;;;;;86.68;41.47;;;;;;;12.43;100.00;100536.22;4931620;29;20031;-73
2022/11/01 05:02:36;;;;;;;94.45;43.75;;;;;;;12.39;100.00;100532.25;4923190;29;20032;-74
2022/11/01 05:05:02;;;;;;;92.78;43.63;;;;;;;12.39;100.00;100524.22;4908359;29;20068;-74
2022/11/01 05:07:27;;;;;;;90.32;44.03;;;;;;;12.42;100.00;100537.25;4924524;29;20085;-75
2022/11/01 05:09:52;;;;;;;93.80;42.37;;;;;;;12.39;100.00;100525.06;4931215;29;20421;-76
2022/11/01 05:12:18;;;;;;;93.87;41.17;;;;;;;12.43;100.00;100538.91;4929672;29;20035;-73
2022/11/01 05:14:43;;;;;;;93.60;42.90;;;;;;;12.41;100.00;100530.22;4930730;29;20095;-75
2022/11/01 05:17:09;;;;;;;93.10;42.57;;;;;;;12.41;100.00;100528.38;4931081;29;20034;-73
2022/11/01 05:19:34;;;;;;;84.97;43.37;;;;;;;12.43;100.00;100520.16;4948534;29;20027;-73
2022/11/01 05:21:59;;;;;;;90.77;43.53;;;;;;;12.44;100.00;100522.66;4907522;29;20122;-73
2022/11/01 05:24:25;;;;;;;82.30;42.23;;;;;;;12.43;100.00;100515.66;4948244;29;20396;-73
2022/11/01 05:26:50;;;;;;;84.00;41.40;;;;;;;12.49;100.00;100522.13;4930284;29;20234;-73
2022/11/01 05:29:16;;;;;;;98.90;41.37;;;;;;;12.49;100.00;100529.31;4928333;29;20039;-74
2022/11/01 05:31:41;;;;;;;80.75;41.60;;;;;;;12.48;100.00;100541.03;4916080;29;20147;-73
2022/11/01 05:34:06;;;;;;;85.40;42.53;;;;;;;12.45;100.00;100542.22;4911729;29;20058;-73
2022/11/01 05:36:32;;;;;;;84.27;39.90;;;;;;;12.46;100.00;100546.59;4927163;29;20171;-74
2022/11/01 05:38:58;;;;;;;88.53;41.80;;;;;;;12.52;100.00;100550.38;4944115;29;20039;-75
2022/11/01 05:41:24;;;;;;;92.10;44.35;;;;;;;12.49;100.00;100540.88;4896210;29;20438;-74
2022/11/01 05:43:50;;;;;;;97.25;42.63;;;;;;;12.48;100.00;100524.97;4913973;29;20074;-74
2022/11/01 05:46:15;;;;;;;85.13;43.47;;;;;;;12.45;100.00;100515.44;4930056;29;20058;-73
2022/11/01 05:48:41;;;;;;;95.50;44.77;;;;;;;12.48;100.00;100530.31;4914483;29;20086;-74
2022/11/01 05:51:07;;;;;;;81.68;41.45;;;;;;;12.45;100.00;100523.50;4914656;29;20033;-74
2022/11/01 05:53:33;;;;;;;91.82;46.45;;;;;;;12.48;100.00;100535.69;4914564;29;20478;-74
2022/11/01 05:55:58;;;;;;;86.83;42.20;;;;;;;12.46;100.00;100538.56;4939454;29;20069;-74
2022/11/01 05:58:24;;;;;;;85.27;42.10;;;;;;;12.49;100.00;100532.84;4939928;29;20031;-73
2022/11/01 06:00:55;;;;;;;89.13;42.22;;;;;;;12.45;100.00;100539.56;4947892;29;20118;-72
2022/11/01 06:03:21;;;;;;;84.25;43.28;;;;;;;12.45;100.00;100542.22;4947605;29;20066;-73
2022/11/01 06:05:47;;;;;;;83.05;43.25;;;;;;;12.44;100.00;100537.91;4929983;29;20122;-73
2022/11/01 06:08:12;;;;;;;89.30;43.33;;;;;;;12.43;100.00;100539.75;4947586;29;20031;-75
2022/11/01 06:10:38;;;;;;;80.80;39.27;;;;;;;12.42;100.00;100539.91;4921797;29;20024;-73
2022/11/01 06:13:03;;;;;;;89.23;40.97;;;;;;;12.42;100.00;100539.91;4911339;29;20035;-74
2022/11/01 06:15:28;;;;;;;85.90;40.70;;;;;;;12.39;100.00;100527.72;4926790;29;20468;-74
2022/11/01 06:17:58;;;;;;;80.33;40.60;;;;;;;12.40;100.00;100541.94;4930139;29;20054;-74
2022/11/01 06:20:25;;;;;;;86.50;42.47;;;;;;;12.37;100.00;100528.91;4922289;29;20039;-74
2022/11/01 06:22:50;;;;;;;86.45;41.40;;;;;;;12.38;100.00;100525.22;4913852;29;20023;-74
2022/11/01 06:25:15;;;;;;;88.10;42.00;;;;;;;12.35;100.00;100520.22;4913543;29;20090;-73
2022/11/01 06:27:41;;;;;;;79.53;39.87;;;;;;;12.37;100.00;100528.91;4928378;29;20130;-74
2022/11/01 06:30:07;;;;;;;90.33;43.03;;;;;;;12.35;100.00;100541.66;4940656;29;20038;-73
2022/11/01 06:32:32;;;;;;;91.03;42.55;;;;;;;12.33;100.00;100547.16;4947233;29;20159;-75
2022/11/01 06:34:57;;;;;;;82.10;41.23;;;;;;;12.34;100.00;100550.69;4928113;29;20023;-74
2022/11/01 06:37:23;;;;;;;87.93;42.23;;;;;;;12.31;100.00;100551.03;4914605;29;20039;-73
2022/11/01 06:39:48;;;;;;;81.77;41.17;;;;;;;12.30;100.00;100544.03;4928752;29;20043;-73
2022/11/01 06:42:13;;;;;;;81.07;40.23;;;;;;;12.34;100.00;100548.00;4941633;29;20027;-75
2022/11/01 06:44:39;;;;;;;80.47;40.17;;;;;;;12.35;100.00;100552.34;4930630;29;20135;-73
2022/11/01 06:47:04;;;;;;;82.73;40.20;;;;;;;12.33;100.00;100543.66;4911225;29;20114;-73
2022/11/01 06:49:30;;;;;;;81.70;39.10;;;;;;;12.29;100.00;100547.72;4928493;29;20035;-74
2022/11/01 06:51:56;;;;;;;84.97;41.28;;;;;;;12.29;100.00;100542.34;4911655;29;20024;-73
2022/11/01 06:54:22;;;;;;;83.63;39.40;;;;;;;12.27;100.00;100561.28;4926677;29;20042;-73
2022/11/01 06:56:47;;;;;;;86.38;41.22;;;;;;;12.39;100.00;100559.84;4937493;29;20054;-75
2022/11/01 06:59:15;;;;;;;80.87;38.50;;;;;;;12.41;100.00;100557.00;4921917;29;20035;-74
2022/11/01 07:01:41;;;;;;;75.03;38.08;;;;;;;12.41;100.00;100555.16;4929196;29;20035;-74
2022/11/01 07:04:06;;;;;;;77.55;39.63;;;;;;;12.47;100.00;100540.22;4929493;29;20041;-75
2022/11/01 07:06:31;;;;;;;64.40;35.27;;;;;;;12.49;100.00;100537.34;4913217;29;20055;-73
2022/11/01 07:09:00;;;;;;;79.90;37.77;;;;;;;12.44;100.00;100543.25;4929401;29;20039;-75
2022/11/01 07:11:26;;;;;;;76.22;37.25;;;;;;;12.46;100.00;100541.22;4913715;29;20027;-73
2022/11/01 07:13:51;;;;;;;75.83;35.40;;;;;;;12.53;100.00;100552.06;4936551;29;20043;-73
2022/11/01 07:16:16;;;;;;;67.50;34.53;;;;;;;12.51;100.00;100544.19;4910084;29;20031;-75
2022/11/01 07:18:43;;;;;;;76.23;34.17;;;;;;;12.57;100.00;100551.53;4910846;29;20552;-74
2022/11/01 07:21:08;;;;;;;;;;;;;;;12.59;100.00;100544.13;4940970;29;20039;-74
2022/11/01 07:23:33;;;;;;;68.65;33.45;;;;;;;12.53;100.00;100534.16;4929003;29;20053;-73
2022/11/01 07:25:59;;;;;;;71.33;34.20;;;;;;;12.59;100.00;100538.75;4928915;29;20027;-74
2022/11/01 07:28:24;;;;;;;69.23;37.10;;;;;;;12.50;100.00;100539.84;4946522;29;20037;-73
2022/11/01 07:30:52;;;;;;;65.93;35.58;;;;;;;12.49;100.00;100562.28;4913239;29;20039;-73
2022/11/01 07:33:18;;;;;;;70.63;36.33;;;;;;;12.52;100.00;100553.06;4923402;29;20066;-75
2022/11/01 07:35:44;;;;;;;;;;;;;;;12.52;100.00;100559.25;4914409;29;20059;-73
2022/11/01 07:38:09;;;;;;;;;;;;;;;12.49;100.00;100572.16;4925654;29;20020;-73
2022/11/01 07:40:35;;;;;;;71.03;35.27;;;;;;;12.48;100.00;100576.69;4948359;29;19925;-73
2022/11/01 07:43:01;;;;;;;73.53;35.15;;;;;;;12.52;100.00;100580.66;4930094;29;20046;-74
2022/11/01 07:45:29;;;;;;;69.53;35.25;;;;;;;12.49;100.00;100578.34;4913737;29;20039;-72
2022/11/01 07:48:03;;;;;;;75.70;38.83;;;;;;;12.53;100.00;100597.59;4949831;29;20493;-74
2022/11/01 07:50:30;;;;;;;73.10;36.95;;;;;;;12.54;100.00;100600.06;4917720;29;20087;-74
2022/11/01 07:53:24;;;;;;;77.88;36.70;;;;;;;12.52;100.00;100595.91;4941835;29;20035;-73
2022/11/01 07:55:50;;;;;;;69.80;37.22;;;;;;;12.55;100.00;100595.53;4874170;29;20049;-75
2022/11/01 07:58:16;;;;;;;70.78;35.30;;;;;;;12.56;100.00;100589.19;4890576;29;20100;-74
2022/11/01 08:00:42;;;;;;;79.15;36.83;;;;;;;12.69;100.00;100602.81;4882557;29;20048;-74
2022/11/01 08:03:13;;;;;;;71.15;34.63;;;;;;;12.67;100.00;100597.63;4874762;29;20487;-74
2022/11/01 08:05:39;;;;;;;75.20;36.40;;;;;;;12.69;100.00;100592.09;4864704;29;20530;-74
2022/11/01 08:08:05;;;;;;;72.07;37.50;;;;;;;12.70;100.00;100588.41;4886730;29;20037;-74
2022/11/01 08:10:32;;;;;;;70.72;34.90;;;;;;;12.74;100.00;100600.44;4887481;29;20137;-74
2022/11/01 08:13:13;;;;;;;65.50;33.50;;;;;;;12.68;100.00;100580.53;4875281;29;20826;-75
2022/11/01 08:15:39;;;;;;;69.90;33.17;;;;;;;12.82;100.00;100575.41;4881884;29;20149;-73
2022/11/01 08:18:04;;;;;;;77.60;37.97;;;;;;;12.87;100.00;100570.31;4864474;29;20120;-74
2022/11/01 08:20:30;;;;;;;61.20;33.23;;;;;;;12.95;100.00;100585.50;4879764;29;20049;-73
2022/11/01 08:22:55;;;;;;;68.53;34.37;;;;;;;12.93;100.00;100577.66;4882892;29;20100;-73
2022/11/01 08:25:21;;;;;;;61.90;32.25;;;;;;;13.04;100.00;100587.94;4883911;29;20380;-74
2022/11/01 08:27:47;;;;;;;67.65;31.50;;;;;;;13.00;100.00;100578.59;4881674;29;20096;-75
2022/11/01 08:30:14;;;;;;;64.70;34.13;;;;;;;12.97;100.00;100573.59;4882879;29;20502;-76
2022/11/01 08:32:39;;;;;;;62.53;33.58;;;;;;;12.99;100.00;100576.91;4901187;29;20071;-74
2022/11/01 08:35:05;;;;;;;62.87;31.77;;;;;;;12.98;100.00;100585.13;4913828;29;20035;-74
2022/11/01 08:37:30;;;;;;;62.33;31.73;;;;;;;13.00;100.00;100586.63;4905720;29;20034;-73
2022/11/01 08:39:55;;;;;;;72.53;31.03;;;;;;;13.09;100.00;100592.75;4930739;29;20481;-73
2022/11/01 08:42:21;;;;;;;58.80;29.60;;;;;;;13.24;100.00;100596.25;4917606;29;20644;-74
2022/11/01 08:44:46;;;;;;;57.40;30.73;;;;;;;13.29;100.00;100587.69;4930492;29;20035;-73
2022/11/01 08:47:12;;;;;;;53.70;30.43;;;;;;;13.36;100.00;100583.25;4912997;29;20490;-73
2022/11/01 08:49:37;;;;;;;51.80;27.50;;;;;;;13.61;100.00;100591.88;4938472;29;20433;-75
2022/11/01 08:52:03;;;;;;;50.10;27.40;;;;;;;14.42;100.00;100577.50;4913703;29;20552;-75
2022/11/01 08:54:28;;;;;;;56.25;26.63;;;;;;;15.10;100.00;100559.91;4921214;29;20071;-73
2022/11/01 08:56:53;;;;;;;43.58;23.17;;;;;;;15.08;100.00;100491.25;4930287;29;20046;-74
2022/11/01 08:59:19;;;;;;;46.33;25.33;;;;;;;14.55;100.00;100462.97;4921357;29;20067;-73
2022/11/01 09:01:44;;;;;;;50.50;25.03;;;;;;;14.35;100.00;100468.19;4930283;29;20095;-73
2022/11/01 09:04:11;;;;;;;42.67;23.40;;;;;;;14.59;100.00;100497.53;4929176;29;20107;-74
2022/11/01 09:06:36;;;;;;;42.72;24.13;;;;;;;14.74;100.00;100490.19;4913180;29;20042;-73
2022/11/01 09:09:03;;;;;;;45.63;23.25;;;;;;;14.82;100.00;100483.81;4920522;29;20036;-74
2022/11/01 09:11:29;;;;;;;50.05;26.00;;;;;;;14.52;100.00;100475.94;4930234;29;20055;-74
2022/11/01 09:13:56;;;;;;;41.42;21.92;;;;;;;14.54;100.00;100480.13;4920900;29;20500;-74
2022/11/01 09:16:22;;;;;;;42.05;20.10;;;;;;;14.55;100.00;100487.16;4929982;29;20027;-74
2022/11/01 09:18:47;;;;;;;38.33;19.70;;;;;;;14.56;100.00;100474.53;4930102;29;20395;-75
2022/11/01 09:21:13;;;;;;;37.10;19.80;;;;;;;14.52;100.00;100478.63;4935536;29;20042;-73
2022/11/01 09:23:39;;;;;;;38.28;18.65;;;;;;;14.51;100.00;100483.16;4915279;29;20055;-74
2022/11/01 09:26:07;;;;;;;36.22;19.10;;;;;;;14.61;100.00;100493.63;4929633;29;20036;-75
2022/11/01 09:28:33;;;;;;;33.78;20.40;;;;;;;14.55;100.00;100492.53;4912836;29;20441;-74
2022/11/01 09:31:06;;;;;;;34.53;19.23;;;;;;;14.53;100.00;100489.16;4930133;29;20027;-73
2022/11/01 09:33:31;;;;;;;38.38;18.83;;;;;;;14.64;100.00;100495.91;4896896;29;20493;-73
2022/11/01 09:35:57;;;;;;;29.47;17.43;;;;;;;14.80;100.00;100493.94;4929563;29;20020;-73
2022/11/01 09:38:23;;;;;;;30.13;15.95;;;;;;;14.82;100.00;100481.13;4912634;29;20043;-73
2022/11/01 09:41:00;;;;;;;31.08;18.10;;;;;;;14.95;100.00;100463.22;4929689;29;20039;-73
2022/11/01 09:43:30;;;;;;;36.35;14.45;;;;;;;15.20;100.00;100452.81;4929765;29;20036;-73
2022/11/01 09:45:58;;;;;;;29.20;14.75;;;;;;;15.64;100.00;100431.88;4929044;29;20086;-74
2022/11/01 09:48:27;;;;;;;23.73;14.55;;;;;;;15.79;100.00;100369.81;4912469;29;20050;-73
2022/11/01 09:50:53;;;;;;;25.83;13.48;;;;;;;15.48;100.00;100336.22;4929495;29;20115;-73
2022/11/01 09:53:25;;;;;;;21.55;13.25;;;;;;;15.70;100.00;100357.56;4929174;29;20114;-74
2022/11/01 09:56:08;;;;;;;21.75;12.57;;;;;;;16.11;100.00;100338.56;4911572;29;20043;-74
2022/11/01 09:58:42;;;;;;;31.83;14.23;;;;;;;16.84;100.00;100259.41;4936437;28;20086;-73
2022/11/01 10:01:23;;;;;;;19.23;12.80;;;;;;;17.11;100.00;100146.78;4920051;29;20090;-73
2022/11/01 10:03:57;;;;;;;19.00;11.32;;;;;;;17.66;100.00;100062.41;4944820;29;20435;-73
2022/11/01 10:06:41;;;;;;;19.00;11.05;;;;;;;17.22;100.00;99948.34;4915264;29;20151;-73
2022/11/01 10:09:44;;;;;;;18.63;10.68;;;;;;;17.41;100.00;99973.41;4900521;29;20027;-73
2022/11/01 10:12:12;;;;;;;27.08;11.80;;;;;;;17.07;100.00;99967.59;4933780;29;20062;-73
2022/11/01 10:15:16;;;;;;;16.63;11.20;;;;;;;16.81;100.00;99988.38;4931327;29;20505;-73
2022/11/01 10:17:49;;;;;;;21.13;11.27;;;;;;;16.48;100.00;100065.94;4922008;29;20059;-73
2022/11/01 10:20:14;;;;;;;21.38;10.90;;;;;;;16.44;100.00;100111.34;4911625;29;20513;-73
2022/11/01 10:22:43;;;;;;;21.63;10.80;;;;;;;16.30;100.00;100134.84;4928692;29;20071;-74
2022/11/01 10:25:32;;;;;;;17.35;10.20;;;;;;;16.31;100.00;100109.56;4928245;29;20035;-73
2022/11/01 10:27:58;;;;;;;19.77;10.25;;;;;;;16.29;100.00;100117.00;4919511;29;20032;-73
2022/11/01 10:30:24;;;;;;;20.37;10.23;;;;;;;16.35;100.00;100129.63;4915556;29;20544;-73
2022/11/01 10:33:01;;;;;;;16.58;9.15;;;;;;;16.11;100.00;100085.44;4928654;29;20035;-74
2022/11/01 10:35:31;;;;;;;16.48;8.90;;;;;;;16.22;100.00;100188.94;4927046;29;20046;-73
2022/11/01 10:38:05;;;;;;;16.88;8.80;;;;;;;16.05;100.00;100191.28;4920737;29;20130;-73
2022/11/01 10:40:38;;;;;;;18.48;8.80;;;;;;;15.98;100.00;100207.44;4919488;29;20039;-73
2022/11/01 10:43:13;;;;;;;16.10;8.40;;;;;;;15.91;100.00;100203.94;4928557;29;20115;-73
2022/11/01 10:45:43;;;;;;;16.48;7.82;;;;;;;15.75;100.00;100215.16;4911939;29;20702;-74
2022/11/01 10:48:23;;;;;;;12.30;6.22;;;;;;;15.81;100.00;100131.72;4934812;29;20027;-73
2022/11/01 10:50:49;;;;;;;20.27;7.35;;;;;;;16.06;100.00;100152.56;4928382;29;20046;-73
2022/11/01 10:53:18;;;;;;;9.32;5.68;;;;;;;15.87;100.00;100073.50;4911400;29;20047;-74
2022/11/01 10:55:49;;;;;;;9.48;5.18;;;;;;;15.69;100.00;100014.97;4912493;29;20043;-73
2022/11/01 10:58:27;;;;;;;11.80;4.70;;;;;;;15.75;100.00;99999.88;4916595;29;20035;-73
2022/11/01 11:00:52;;;;;;;10.27;4.45;;;;;;;15.92;100.00;100040.56;4928313;29;20418;-73
2022/11/01 11:03:23;;;;;;;8.90;4.70;;;;;;;15.81;100.00;99969.41;4934218;29;20035;-73
2022/11/01 11:05:50;;;;;;;11.52;4.53;;;;;;;15.75;100.00;99905.69;4929883;29;20335;-73
2022/11/01 11:08:19;;;;;;;7.95;3.78;;;;;;;15.84;100.00;99794.03;4922109;29;20508;-73
2022/11/01 11:10:44;;;;;;;9.50;4.18;;;;;;;15.98;100.00;99757.06;4933880;29;20031;-73
2022/11/01 11:13:14;;;;;;;9.20;4.13;;;;;;;15.80;100.00;99739.00;4929182;29;20485;-73
2022/11/01 11:15:45;;;;;;;8.25;3.92;;;;;;;15.89;100.00;99686.53;4931815;29;20036;-73
2022/11/01 11:18:24;;;;;;;8.85;3.50;;;;;;;16.22;100.00;99620.72;4915131;29;20035;-73
2022/11/01 11:20:53;;;;;;;9.93;3.97;;;;;;;16.88;100.00;99575.88;4932448;29;20468;-74
2022/11/01 11:23:21;;;;;;;6.57;2.83;;;;;;;17.77;100.00;99367.88;4938422;29;20378;-73